sensor_id;sensor_type;location;lat;lon;timestamp;P1;durP1;ratioP1;P2;durP2;ratioP2
41480;SDS011;27217;51.220;5.308;2023-05-07T00:00:04;6.57;;;4.82;;
41480;SDS011;27217;51.220;5.308;2023-05-07T00:02:33;7.35;;;5.88;;
41480;SDS011;27217;51.220;5.308;2023-05-07T00:05:01;9.18;;;5.40;;
41480;SDS011;27217;51.220;5.308;2023-05-07T00:07:30;10.13;;;5.47;;
41480;SDS011;27217;51.220;5.308;2023-05-07T00:09:56;7.32;;;5.07;;
41480;SDS011;27217;51.220;5.308;2023-05-07T00:12:22;7.30;;;5.07;;
41480;SDS011;27217;51.220;5.308;2023-05-07T00:14:48;7.35;;;5.07;;
41480;SDS011;27217;51.220;5.308;2023-05-07T00:17:14;7.25;;;4.95;;
41480;SDS011;27217;51.220;5.308;2023-05-07T00:19:40;6.60;;;4.80;;
41480;SDS011;27217;51.220;5.308;2023-05-07T00:22:06;5.28;;;4.28;;
41480;SDS011;27217;51.220;5.308;2023-05-07T00:24:33;10.02;;;5.05;;
41480;SDS011;27217;51.220;5.308;2023-05-07T00:26:59;9.98;;;4.93;;
41480;SDS011;27217;51.220;5.308;2023-05-07T00:29:25;7.13;;;4.95;;
41480;SDS011;27217;51.220;5.308;2023-05-07T00:31:50;15.68;;;5.18;;
41480;SDS011;27217;51.220;5.308;2023-05-07T00:34:17;5.72;;;4.75;;
41480;SDS011;27217;51.220;5.308;2023-05-07T00:36:42;8.75;;;4.22;;
41480;SDS011;27217;51.220;5.308;2023-05-07T00:39:08;7.38;;;4.70;;
41480;SDS011;27217;51.220;5.308;2023-05-07T00:41:34;10.48;;;4.40;;
41480;SDS011;27217;51.220;5.308;2023-05-07T00:44:00;5.88;;;4.85;;
41480;SDS011;27217;51.220;5.308;2023-05-07T00:46:27;9.18;;;5.10;;
41480;SDS011;27217;51.220;5.308;2023-05-07T00:48:55;6.93;;;5.72;;
41480;SDS011;27217;51.220;5.308;2023-05-07T00:51:21;6.63;;;5.22;;
41480;SDS011;27217;51.220;5.308;2023-05-07T00:53:48;9.82;;;5.35;;
41480;SDS011;27217;51.220;5.308;2023-05-07T00:56:14;7.03;;;5.43;;
41480;SDS011;27217;51.220;5.308;2023-05-07T00:58:40;8.82;;;5.40;;
41480;SDS011;27217;51.220;5.308;2023-05-07T01:01:07;8.55;;;5.57;;
41480;SDS011;27217;51.220;5.308;2023-05-07T01:03:32;10.43;;;5.57;;
41480;SDS011;27217;51.220;5.308;2023-05-07T01:05:59;7.72;;;5.78;;
41480;SDS011;27217;51.220;5.308;2023-05-07T01:08:25;9.10;;;5.72;;
41480;SDS011;27217;51.220;5.308;2023-05-07T01:10:53;12.38;;;5.78;;
41480;SDS011;27217;51.220;5.308;2023-05-07T01:13:21;9.50;;;6.38;;
41480;SDS011;27217;51.220;5.308;2023-05-07T01:15:48;9.18;;;6.25;;
41480;SDS011;27217;51.220;5.308;2023-05-07T01:18:14;10.75;;;6.82;;
41480;SDS011;27217;51.220;5.308;2023-05-07T01:20:40;8.10;;;6.28;;
41480;SDS011;27217;51.220;5.308;2023-05-07T01:23:06;9.43;;;6.47;;
41480;SDS011;27217;51.220;5.308;2023-05-07T01:25:33;10.35;;;7.30;;
41480;SDS011;27217;51.220;5.308;2023-05-07T01:27:59;12.32;;;7.55;;
41480;SDS011;27217;51.220;5.308;2023-05-07T01:30:26;10.90;;;7.55;;
41480;SDS011;27217;51.220;5.308;2023-05-07T01:32:55;10.07;;;7.32;;
41480;SDS011;27217;51.220;5.308;2023-05-07T01:35:26;14.05;;;8.00;;
41480;SDS011;27217;51.220;5.308;2023-05-07T01:37:54;10.27;;;8.45;;
41480;SDS011;27217;51.220;5.308;2023-05-07T01:40:21;11.60;;;8.80;;
41480;SDS011;27217;51.220;5.308;2023-05-07T01:42:48;12.80;;;8.93;;
41480;SDS011;27217;51.220;5.308;2023-05-07T01:45:14;13.15;;;9.05;;
41480;SDS011;27217;51.220;5.308;2023-05-07T01:47:40;15.27;;;9.70;;
41480;SDS011;27217;51.220;5.308;2023-05-07T01:50:06;13.02;;;9.30;;
41480;SDS011;27217;51.220;5.308;2023-05-07T01:52:35;12.90;;;10.45;;
41480;SDS011;27217;51.220;5.308;2023-05-07T01:55:04;14.85;;;10.18;;
41480;SDS011;27217;51.220;5.308;2023-05-07T01:57:31;16.00;;;10.10;;
41480;SDS011;27217;51.220;5.308;2023-05-07T01:59:57;12.68;;;10.00;;
41480;SDS011;27217;51.220;5.308;2023-05-07T02:02:23;14.38;;;10.27;;
41480;SDS011;27217;51.220;5.308;2023-05-07T02:04:49;15.82;;;10.65;;
41480;SDS011;27217;51.220;5.308;2023-05-07T02:07:15;14.73;;;10.70;;
41480;SDS011;27217;51.220;5.308;2023-05-07T02:09:41;16.50;;;11.02;;
41480;SDS011;27217;51.220;5.308;2023-05-07T02:12:07;13.68;;;10.82;;
41480;SDS011;27217;51.220;5.308;2023-05-07T02:14:33;16.10;;;10.93;;
41480;SDS011;27217;51.220;5.308;2023-05-07T02:16:59;13.98;;;11.55;;
41480;SDS011;27217;51.220;5.308;2023-05-07T02:19:25;16.70;;;11.25;;
41480;SDS011;27217;51.220;5.308;2023-05-07T02:21:51;16.52;;;11.55;;
41480;SDS011;27217;51.220;5.308;2023-05-07T02:24:17;15.35;;;10.98;;
41480;SDS011;27217;51.220;5.308;2023-05-07T02:26:44;19.60;;;11.57;;
41480;SDS011;27217;51.220;5.308;2023-05-07T02:29:10;18.85;;;11.00;;
41480;SDS011;27217;51.220;5.308;2023-05-07T02:31:36;23.15;;;12.00;;
41480;SDS011;27217;51.220;5.308;2023-05-07T02:34:02;18.45;;;12.43;;
41480;SDS011;27217;51.220;5.308;2023-05-07T02:36:28;22.08;;;12.88;;
41480;SDS011;27217;51.220;5.308;2023-05-07T02:38:55;18.05;;;12.32;;
41480;SDS011;27217;51.220;5.308;2023-05-07T02:41:20;18.80;;;12.57;;
41480;SDS011;27217;51.220;5.308;2023-05-07T02:43:46;17.27;;;11.82;;
41480;SDS011;27217;51.220;5.308;2023-05-07T02:46:12;20.58;;;13.27;;
41480;SDS011;27217;51.220;5.308;2023-05-07T02:48:38;18.58;;;13.00;;
41480;SDS011;27217;51.220;5.308;2023-05-07T02:51:03;19.88;;;13.55;;
41480;SDS011;27217;51.220;5.308;2023-05-07T02:53:30;18.80;;;12.10;;
41480;SDS011;27217;51.220;5.308;2023-05-07T02:55:56;23.83;;;12.10;;
41480;SDS011;27217;51.220;5.308;2023-05-07T02:58:26;15.27;;;13.02;;
41480;SDS011;27217;51.220;5.308;2023-05-07T03:00:52;20.55;;;14.00;;
41480;SDS011;27217;51.220;5.308;2023-05-07T03:03:19;21.17;;;13.23;;
41480;SDS011;27217;51.220;5.308;2023-05-07T03:05:46;19.70;;;14.40;;
41480;SDS011;27217;51.220;5.308;2023-05-07T03:08:12;21.33;;;13.27;;
41480;SDS011;27217;51.220;5.308;2023-05-07T03:10:37;26.33;;;14.15;;
41480;SDS011;27217;51.220;5.308;2023-05-07T03:13:03;19.55;;;13.43;;
41480;SDS011;27217;51.220;5.308;2023-05-07T03:15:29;20.65;;;13.85;;
41480;SDS011;27217;51.220;5.308;2023-05-07T03:17:55;20.98;;;13.93;;
41480;SDS011;27217;51.220;5.308;2023-05-07T03:20:21;19.80;;;13.77;;
41480;SDS011;27217;51.220;5.308;2023-05-07T03:22:48;24.10;;;13.68;;
41480;SDS011;27217;51.220;5.308;2023-05-07T03:25:14;20.02;;;13.95;;
41480;SDS011;27217;51.220;5.308;2023-05-07T03:27:40;23.70;;;14.95;;
41480;SDS011;27217;51.220;5.308;2023-05-07T03:30:09;22.80;;;15.40;;
41480;SDS011;27217;51.220;5.308;2023-05-07T03:32:36;26.23;;;13.68;;
41480;SDS011;27217;51.220;5.308;2023-05-07T03:35:02;21.33;;;15.10;;
41480;SDS011;27217;51.220;5.308;2023-05-07T03:37:29;23.23;;;14.00;;
41480;SDS011;27217;51.220;5.308;2023-05-07T03:39:55;21.85;;;14.38;;
41480;SDS011;27217;51.220;5.308;2023-05-07T03:42:21;22.20;;;15.55;;
41480;SDS011;27217;51.220;5.308;2023-05-07T03:44:47;19.55;;;13.40;;
41480;SDS011;27217;51.220;5.308;2023-05-07T03:47:13;20.55;;;15.07;;
41480;SDS011;27217;51.220;5.308;2023-05-07T03:49:39;24.20;;;14.93;;
41480;SDS011;27217;51.220;5.308;2023-05-07T03:52:05;21.48;;;14.90;;
41480;SDS011;27217;51.220;5.308;2023-05-07T03:54:31;22.73;;;16.00;;
41480;SDS011;27217;51.220;5.308;2023-05-07T03:56:59;24.90;;;16.23;;
41480;SDS011;27217;51.220;5.308;2023-05-07T03:59:25;23.52;;;15.50;;
41480;SDS011;27217;51.220;5.308;2023-05-07T04:01:51;26.83;;;15.40;;
41480;SDS011;27217;51.220;5.308;2023-05-07T04:04:18;24.52;;;14.85;;
41480;SDS011;27217;51.220;5.308;2023-05-07T04:06:43;21.35;;;15.85;;
41480;SDS011;27217;51.220;5.308;2023-05-07T04:09:09;22.50;;;14.43;;
41480;SDS011;27217;51.220;5.308;2023-05-07T04:11:35;27.80;;;15.82;;
41480;SDS011;27217;51.220;5.308;2023-05-07T04:14:01;23.48;;;14.70;;
41480;SDS011;27217;51.220;5.308;2023-05-07T04:16:27;20.38;;;14.55;;
41480;SDS011;27217;51.220;5.308;2023-05-07T04:18:53;26.75;;;14.68;;
41480;SDS011;27217;51.220;5.308;2023-05-07T04:21:20;22.40;;;14.25;;
41480;SDS011;27217;51.220;5.308;2023-05-07T04:23:47;27.45;;;14.23;;
41480;SDS011;27217;51.220;5.308;2023-05-07T04:26:13;25.48;;;14.88;;
41480;SDS011;27217;51.220;5.308;2023-05-07T04:28:40;22.95;;;13.40;;
41480;SDS011;27217;51.220;5.308;2023-05-07T04:31:06;22.15;;;13.05;;
41480;SDS011;27217;51.220;5.308;2023-05-07T04:33:32;18.67;;;13.88;;
41480;SDS011;27217;51.220;5.308;2023-05-07T04:36:00;26.50;;;13.45;;
41480;SDS011;27217;51.220;5.308;2023-05-07T04:38:30;20.65;;;13.55;;
41480;SDS011;27217;51.220;5.308;2023-05-07T04:40:57;19.92;;;14.02;;
41480;SDS011;27217;51.220;5.308;2023-05-07T04:43:28;20.25;;;13.38;;
41480;SDS011;27217;51.220;5.308;2023-05-07T04:45:53;21.42;;;13.00;;
41480;SDS011;27217;51.220;5.308;2023-05-07T04:48:19;21.80;;;13.57;;
41480;SDS011;27217;51.220;5.308;2023-05-07T04:50:51;20.15;;;13.98;;
41480;SDS011;27217;51.220;5.308;2023-05-07T04:53:17;21.35;;;13.52;;
41480;SDS011;27217;51.220;5.308;2023-05-07T04:55:44;19.02;;;13.43;;
41480;SDS011;27217;51.220;5.308;2023-05-07T04:58:10;20.67;;;13.43;;
41480;SDS011;27217;51.220;5.308;2023-05-07T05:00:36;18.33;;;12.50;;
41480;SDS011;27217;51.220;5.308;2023-05-07T05:03:03;20.67;;;12.82;;
41480;SDS011;27217;51.220;5.308;2023-05-07T05:05:30;22.08;;;12.88;;
41480;SDS011;27217;51.220;5.308;2023-05-07T05:07:56;19.52;;;13.88;;
41480;SDS011;27217;51.220;5.308;2023-05-07T05:10:22;16.92;;;13.05;;
41480;SDS011;27217;51.220;5.308;2023-05-07T05:12:48;20.67;;;13.18;;
41480;SDS011;27217;51.220;5.308;2023-05-07T05:15:14;18.92;;;14.07;;
41480;SDS011;27217;51.220;5.308;2023-05-07T05:17:40;20.60;;;12.98;;
41480;SDS011;27217;51.220;5.308;2023-05-07T05:20:06;17.95;;;12.90;;
41480;SDS011;27217;51.220;5.308;2023-05-07T05:22:32;23.90;;;14.27;;
41480;SDS011;27217;51.220;5.308;2023-05-07T05:24:58;19.23;;;13.20;;
41480;SDS011;27217;51.220;5.308;2023-05-07T05:27:24;22.33;;;14.18;;
41480;SDS011;27217;51.220;5.308;2023-05-07T05:29:50;17.35;;;13.68;;
41480;SDS011;27217;51.220;5.308;2023-05-07T05:32:16;27.95;;;14.10;;
41480;SDS011;27217;51.220;5.308;2023-05-07T05:34:42;26.15;;;14.10;;
41480;SDS011;27217;51.220;5.308;2023-05-07T05:37:08;19.85;;;13.60;;
41480;SDS011;27217;51.220;5.308;2023-05-07T05:39:34;18.83;;;12.75;;
41480;SDS011;27217;51.220;5.308;2023-05-07T05:42:01;25.27;;;13.77;;
41480;SDS011;27217;51.220;5.308;2023-05-07T05:44:27;23.92;;;13.30;;
41480;SDS011;27217;51.220;5.308;2023-05-07T05:46:52;19.27;;;13.57;;
41480;SDS011;27217;51.220;5.308;2023-05-07T05:49:20;22.65;;;14.10;;
41480;SDS011;27217;51.220;5.308;2023-05-07T05:51:47;19.83;;;13.20;;
41480;SDS011;27217;51.220;5.308;2023-05-07T05:54:13;19.67;;;13.23;;
41480;SDS011;27217;51.220;5.308;2023-05-07T05:56:38;16.67;;;13.05;;
41480;SDS011;27217;51.220;5.308;2023-05-07T05:59:04;24.13;;;13.77;;
41480;SDS011;27217;51.220;5.308;2023-05-07T06:01:30;20.00;;;12.40;;
41480;SDS011;27217;51.220;5.308;2023-05-07T06:03:57;21.10;;;12.90;;
41480;SDS011;27217;51.220;5.308;2023-05-07T06:06:23;18.95;;;13.48;;
41480;SDS011;27217;51.220;5.308;2023-05-07T06:08:49;19.10;;;13.48;;
41480;SDS011;27217;51.220;5.308;2023-05-07T06:11:14;16.80;;;12.93;;
41480;SDS011;27217;51.220;5.308;2023-05-07T06:13:40;18.88;;;12.70;;
41480;SDS011;27217;51.220;5.308;2023-05-07T06:16:06;20.20;;;12.48;;
41480;SDS011;27217;51.220;5.308;2023-05-07T06:18:32;22.50;;;13.25;;
41480;SDS011;27217;51.220;5.308;2023-05-07T06:20:58;17.90;;;12.13;;
41480;SDS011;27217;51.220;5.308;2023-05-07T06:23:24;18.27;;;13.43;;
41480;SDS011;27217;51.220;5.308;2023-05-07T06:25:50;19.73;;;12.23;;
41480;SDS011;27217;51.220;5.308;2023-05-07T06:28:17;17.98;;;12.15;;
41480;SDS011;27217;51.220;5.308;2023-05-07T06:30:43;20.25;;;12.30;;
41480;SDS011;27217;51.220;5.308;2023-05-07T06:33:13;13.43;;;11.18;;
41480;SDS011;27217;51.220;5.308;2023-05-07T06:35:40;15.38;;;10.65;;
41480;SDS011;27217;51.220;5.308;2023-05-07T06:38:05;15.35;;;11.73;;
41480;SDS011;27217;51.220;5.308;2023-05-07T06:40:31;18.00;;;10.77;;
41480;SDS011;27217;51.220;5.308;2023-05-07T06:42:58;18.40;;;10.82;;
41480;SDS011;27217;51.220;5.308;2023-05-07T06:45:24;19.38;;;11.00;;
41480;SDS011;27217;51.220;5.308;2023-05-07T06:47:50;13.50;;;10.02;;
41480;SDS011;27217;51.220;5.308;2023-05-07T06:50:16;13.13;;;9.57;;
41480;SDS011;27217;51.220;5.308;2023-05-07T06:52:42;14.43;;;9.50;;
41480;SDS011;27217;51.220;5.308;2023-05-07T06:55:10;14.30;;;10.15;;
41480;SDS011;27217;51.220;5.308;2023-05-07T06:57:36;14.70;;;9.90;;
41480;SDS011;27217;51.220;5.308;2023-05-07T07:00:03;14.70;;;9.90;;
41480;SDS011;27217;51.220;5.308;2023-05-07T07:02:31;23.25;;;10.15;;
41480;SDS011;27217;51.220;5.308;2023-05-07T07:04:58;12.60;;;9.07;;
41480;SDS011;27217;51.220;5.308;2023-05-07T07:07:24;15.65;;;8.95;;
41480;SDS011;27217;51.220;5.308;2023-05-07T07:09:50;17.45;;;9.98;;
41480;SDS011;27217;51.220;5.308;2023-05-07T07:12:17;14.80;;;9.32;;
41480;SDS011;27217;51.220;5.308;2023-05-07T07:14:42;11.00;;;9.27;;
41480;SDS011;27217;51.220;5.308;2023-05-07T07:17:08;13.23;;;8.75;;
41480;SDS011;27217;51.220;5.308;2023-05-07T07:19:35;17.38;;;9.05;;
41480;SDS011;27217;51.220;5.308;2023-05-07T07:22:01;12.15;;;9.27;;
41480;SDS011;27217;51.220;5.308;2023-05-07T07:24:27;15.23;;;9.82;;
41480;SDS011;27217;51.220;5.308;2023-05-07T07:26:53;14.27;;;9.43;;
41480;SDS011;27217;51.220;5.308;2023-05-07T07:29:20;10.43;;;8.45;;
41480;SDS011;27217;51.220;5.308;2023-05-07T07:31:47;15.65;;;9.18;;
41480;SDS011;27217;51.220;5.308;2023-05-07T07:34:14;15.63;;;8.70;;
41480;SDS011;27217;51.220;5.308;2023-05-07T07:36:40;10.23;;;8.50;;
41480;SDS011;27217;51.220;5.308;2023-05-07T07:39:06;13.00;;;8.52;;
41480;SDS011;27217;51.220;5.308;2023-05-07T07:41:32;10.73;;;8.07;;
41480;SDS011;27217;51.220;5.308;2023-05-07T07:43:58;12.23;;;9.10;;
41480;SDS011;27217;51.220;5.308;2023-05-07T07:46:24;13.35;;;7.72;;
41480;SDS011;27217;51.220;5.308;2023-05-07T07:48:49;10.13;;;7.75;;
41480;SDS011;27217;51.220;5.308;2023-05-07T07:51:15;12.07;;;8.05;;
41480;SDS011;27217;51.220;5.308;2023-05-07T07:53:41;14.45;;;7.88;;
41480;SDS011;27217;51.220;5.308;2023-05-07T07:56:07;18.13;;;8.32;;
41480;SDS011;27217;51.220;5.308;2023-05-07T07:58:33;13.10;;;7.80;;
41480;SDS011;27217;51.220;5.308;2023-05-07T08:01:00;11.77;;;7.25;;
41480;SDS011;27217;51.220;5.308;2023-05-07T08:03:26;9.43;;;6.45;;
41480;SDS011;27217;51.220;5.308;2023-05-07T08:05:53;11.85;;;6.90;;
41480;SDS011;27217;51.220;5.308;2023-05-07T08:08:18;9.45;;;6.68;;
41480;SDS011;27217;51.220;5.308;2023-05-07T08:10:48;8.85;;;5.57;;
41480;SDS011;27217;51.220;5.308;2023-05-07T08:13:15;9.23;;;6.03;;
41480;SDS011;27217;51.220;5.308;2023-05-07T08:15:41;13.23;;;6.10;;
41480;SDS011;27217;51.220;5.308;2023-05-07T08:18:07;13.75;;;5.57;;
41480;SDS011;27217;51.220;5.308;2023-05-07T08:20:33;6.78;;;5.72;;
41480;SDS011;27217;51.220;5.308;2023-05-07T08:23:02;10.23;;;6.20;;
41480;SDS011;27217;51.220;5.308;2023-05-07T08:25:27;8.75;;;5.35;;
41480;SDS011;27217;51.220;5.308;2023-05-07T08:27:54;8.48;;;4.97;;
41480;SDS011;27217;51.220;5.308;2023-05-07T08:30:19;6.15;;;4.35;;
41480;SDS011;27217;51.220;5.308;2023-05-07T08:32:45;6.32;;;4.95;;
41480;SDS011;27217;51.220;5.308;2023-05-07T08:35:11;6.72;;;5.35;;
41480;SDS011;27217;51.220;5.308;2023-05-07T08:37:38;7.25;;;5.55;;
41480;SDS011;27217;51.220;5.308;2023-05-07T08:40:04;12.93;;;5.10;;
41480;SDS011;27217;51.220;5.308;2023-05-07T08:42:31;8.23;;;5.50;;
41480;SDS011;27217;51.220;5.308;2023-05-07T08:45:00;11.48;;;4.82;;
41480;SDS011;27217;51.220;5.308;2023-05-07T08:47:32;8.55;;;4.95;;
41480;SDS011;27217;51.220;5.308;2023-05-07T08:50:05;6.93;;;4.82;;
41480;SDS011;27217;51.220;5.308;2023-05-07T08:52:34;6.70;;;5.00;;
41480;SDS011;27217;51.220;5.308;2023-05-07T08:55:01;8.90;;;4.93;;
41480;SDS011;27217;51.220;5.308;2023-05-07T08:57:28;8.98;;;5.22;;
41480;SDS011;27217;51.220;5.308;2023-05-07T08:59:54;7.70;;;5.22;;
41480;SDS011;27217;51.220;5.308;2023-05-07T09:02:20;8.48;;;4.97;;
41480;SDS011;27217;51.220;5.308;2023-05-07T09:04:46;10.55;;;5.53;;
41480;SDS011;27217;51.220;5.308;2023-05-07T09:07:12;8.65;;;5.80;;
41480;SDS011;27217;51.220;5.308;2023-05-07T09:09:38;7.55;;;5.88;;
41480;SDS011;27217;51.220;5.308;2023-05-07T09:12:04;10.90;;;5.93;;
41480;SDS011;27217;51.220;5.308;2023-05-07T09:14:30;9.25;;;5.20;;
41480;SDS011;27217;51.220;5.308;2023-05-07T09:16:56;10.32;;;5.57;;
41480;SDS011;27217;51.220;5.308;2023-05-07T09:19:25;6.93;;;5.25;;
41480;SDS011;27217;51.220;5.308;2023-05-07T09:21:58;9.25;;;5.95;;
41480;SDS011;27217;51.220;5.308;2023-05-07T09:24:26;9.18;;;5.18;;
41480;SDS011;27217;51.220;5.308;2023-05-07T09:26:53;8.82;;;5.03;;
41480;SDS011;27217;51.220;5.308;2023-05-07T09:29:20;13.85;;;5.85;;
41480;SDS011;27217;51.220;5.308;2023-05-07T09:31:46;19.55;;;5.65;;
41480;SDS011;27217;51.220;5.308;2023-05-07T09:34:13;8.30;;;5.45;;
41480;SDS011;27217;51.220;5.308;2023-05-07T09:36:39;9.88;;;5.60;;
41480;SDS011;27217;51.220;5.308;2023-05-07T09:39:05;8.07;;;5.43;;
41480;SDS011;27217;51.220;5.308;2023-05-07T09:41:31;10.98;;;4.50;;
41480;SDS011;27217;51.220;5.308;2023-05-07T09:43:57;11.30;;;5.40;;
41480;SDS011;27217;51.220;5.308;2023-05-07T09:46:32;11.32;;;5.28;;
41480;SDS011;27217;51.220;5.308;2023-05-07T09:49:03;9.32;;;5.20;;
41480;SDS011;27217;51.220;5.308;2023-05-07T09:51:49;6.53;;;4.95;;
41480;SDS011;27217;51.220;5.308;2023-05-07T09:54:17;9.48;;;5.15;;
41480;SDS011;27217;51.220;5.308;2023-05-07T09:56:48;10.88;;;4.82;;
41480;SDS011;27217;51.220;5.308;2023-05-07T09:59:14;9.48;;;4.90;;
41480;SDS011;27217;51.220;5.308;2023-05-07T10:01:42;9.80;;;4.93;;
41480;SDS011;27217;51.220;5.308;2023-05-07T10:04:09;7.07;;;4.63;;
41480;SDS011;27217;51.220;5.308;2023-05-07T10:06:35;7.13;;;4.90;;
41480;SDS011;27217;51.220;5.308;2023-05-07T10:09:05;9.50;;;5.22;;
41480;SDS011;27217;51.220;5.308;2023-05-07T10:11:38;9.35;;;5.13;;
41480;SDS011;27217;51.220;5.308;2023-05-07T10:14:05;6.40;;;4.80;;
41480;SDS011;27217;51.220;5.308;2023-05-07T10:16:32;6.80;;;4.93;;
41480;SDS011;27217;51.220;5.308;2023-05-07T10:19:04;6.38;;;4.38;;
41480;SDS011;27217;51.220;5.308;2023-05-07T10:21:32;8.77;;;4.45;;
41480;SDS011;27217;51.220;5.308;2023-05-07T10:24:05;7.00;;;4.28;;
41480;SDS011;27217;51.220;5.308;2023-05-07T10:26:39;7.18;;;4.68;;
41480;SDS011;27217;51.220;5.308;2023-05-07T10:29:11;6.82;;;4.68;;
41480;SDS011;27217;51.220;5.308;2023-05-07T10:31:47;10.23;;;4.78;;
41480;SDS011;27217;51.220;5.308;2023-05-07T10:34:32;5.13;;;4.07;;
41480;SDS011;27217;51.220;5.308;2023-05-07T10:37:04;6.55;;;4.03;;
41480;SDS011;27217;51.220;5.308;2023-05-07T10:39:31;9.23;;;4.85;;
41480;SDS011;27217;51.220;5.308;2023-05-07T10:41:57;10.75;;;4.88;;
41480;SDS011;27217;51.220;5.308;2023-05-07T10:44:32;5.25;;;4.32;;
41480;SDS011;27217;51.220;5.308;2023-05-07T10:47:08;7.50;;;4.13;;
41480;SDS011;27217;51.220;5.308;2023-05-07T10:49:35;4.35;;;3.10;;
41480;SDS011;27217;51.220;5.308;2023-05-07T10:52:24;6.35;;;3.08;;
41480;SDS011;27217;51.220;5.308;2023-05-07T10:57:42;18.55;;;4.90;;
41480;SDS011;27217;51.220;5.308;2023-05-07T11:05:24;9.75;;;4.72;;
41480;SDS011;27217;51.220;5.308;2023-05-07T11:08:02;8.93;;;5.82;;
41480;SDS011;27217;51.220;5.308;2023-05-07T11:10:51;8.15;;;5.70;;
41480;SDS011;27217;51.220;5.308;2023-05-07T11:16:20;8.18;;;6.72;;
41480;SDS011;27217;51.220;5.308;2023-05-07T11:18:48;9.07;;;6.80;;
41480;SDS011;27217;51.220;5.308;2023-05-07T11:24:02;9.20;;;6.50;;
41480;SDS011;27217;51.220;5.308;2023-05-07T11:26:45;10.07;;;7.95;;
41480;SDS011;27217;51.220;5.308;2023-05-07T11:29:15;10.95;;;7.03;;
41480;SDS011;27217;51.220;5.308;2023-05-07T11:31:49;16.08;;;9.52;;
41480;SDS011;27217;51.220;5.308;2023-05-07T11:34:23;16.80;;;10.10;;
41480;SDS011;27217;51.220;5.308;2023-05-07T11:36:51;11.55;;;9.63;;
41480;SDS011;27217;51.220;5.308;2023-05-07T11:39:24;13.63;;;9.02;;
41480;SDS011;27217;51.220;5.308;2023-05-07T11:41:50;18.65;;;10.30;;
41480;SDS011;27217;51.220;5.308;2023-05-07T11:44:15;17.83;;;10.43;;
41480;SDS011;27217;51.220;5.308;2023-05-07T11:46:44;15.18;;;9.88;;
41480;SDS011;27217;51.220;5.308;2023-05-07T11:49:11;15.52;;;10.35;;
41480;SDS011;27217;51.220;5.308;2023-05-07T11:51:37;16.88;;;11.57;;
41480;SDS011;27217;51.220;5.308;2023-05-07T11:54:04;16.92;;;11.45;;
41480;SDS011;27217;51.220;5.308;2023-05-07T11:56:34;16.25;;;10.18;;
41480;SDS011;27217;51.220;5.308;2023-05-07T11:59:04;16.80;;;10.07;;
41480;SDS011;27217;51.220;5.308;2023-05-07T12:01:30;16.35;;;10.63;;
41480;SDS011;27217;51.220;5.308;2023-05-07T12:03:56;17.85;;;11.18;;
41480;SDS011;27217;51.220;5.308;2023-05-07T12:06:22;14.60;;;10.57;;
41480;SDS011;27217;51.220;5.308;2023-05-07T12:08:48;13.00;;;11.35;;
41480;SDS011;27217;51.220;5.308;2023-05-07T12:11:21;20.30;;;10.98;;
41480;SDS011;27217;51.220;5.308;2023-05-07T12:13:48;20.17;;;10.50;;
41480;SDS011;27217;51.220;5.308;2023-05-07T12:16:14;19.05;;;11.57;;
41480;SDS011;27217;51.220;5.308;2023-05-07T12:18:40;19.38;;;10.98;;
41480;SDS011;27217;51.220;5.308;2023-05-07T12:21:07;24.88;;;11.50;;
41480;SDS011;27217;51.220;5.308;2023-05-07T12:23:34;17.23;;;11.18;;
41480;SDS011;27217;51.220;5.308;2023-05-07T12:26:01;18.92;;;12.70;;
41480;SDS011;27217;51.220;5.308;2023-05-07T12:28:27;17.90;;;11.45;;
41480;SDS011;27217;51.220;5.308;2023-05-07T12:30:54;17.95;;;12.18;;
41480;SDS011;27217;51.220;5.308;2023-05-07T12:33:24;21.95;;;12.82;;
41480;SDS011;27217;51.220;5.308;2023-05-07T12:38:19;19.00;;;13.15;;
41480;SDS011;27217;51.220;5.308;2023-05-07T12:40:48;18.15;;;12.60;;
41480;SDS011;27217;51.220;5.308;2023-05-07T12:43:24;14.82;;;12.30;;
41480;SDS011;27217;51.220;5.308;2023-05-07T12:45:53;21.05;;;12.32;;
41480;SDS011;27217;51.220;5.308;2023-05-07T12:48:20;18.92;;;12.55;;
41480;SDS011;27217;51.220;5.308;2023-05-07T12:50:50;21.20;;;12.82;;
41480;SDS011;27217;51.220;5.308;2023-05-07T12:53:19;15.07;;;11.82;;
41480;SDS011;27217;51.220;5.308;2023-05-07T12:55:47;16.48;;;10.68;;
41480;SDS011;27217;51.220;5.308;2023-05-07T13:00:58;16.80;;;10.15;;
41480;SDS011;27217;51.220;5.308;2023-05-07T13:06:00;18.73;;;11.57;;
41480;SDS011;27217;51.220;5.308;2023-05-07T13:08:29;15.77;;;11.27;;
41480;SDS011;27217;51.220;5.308;2023-05-07T13:10:57;17.30;;;10.18;;
41480;SDS011;27217;51.220;5.308;2023-05-07T13:13:28;16.52;;;9.45;;
41480;SDS011;27217;51.220;5.308;2023-05-07T13:15:57;13.55;;;8.18;;
41480;SDS011;27217;51.220;5.308;2023-05-07T13:18:27;11.05;;;7.70;;
41480;SDS011;27217;51.220;5.308;2023-05-07T13:20:54;14.82;;;8.57;;
41480;SDS011;27217;51.220;5.308;2023-05-07T13:23:20;13.65;;;9.23;;
41480;SDS011;27217;51.220;5.308;2023-05-07T13:25:47;13.90;;;8.80;;
41480;SDS011;27217;51.220;5.308;2023-05-07T13:28:13;14.65;;;7.85;;
41480;SDS011;27217;51.220;5.308;2023-05-07T13:30:39;11.10;;;4.53;;
41480;SDS011;27217;51.220;5.308;2023-05-07T13:33:05;7.03;;;4.03;;
41480;SDS011;27217;51.220;5.308;2023-05-07T13:35:32;10.23;;;5.05;;
41480;SDS011;27217;51.220;5.308;2023-05-07T13:37:58;6.35;;;3.60;;
41480;SDS011;27217;51.220;5.308;2023-05-07T13:40:24;12.50;;;7.35;;
41480;SDS011;27217;51.220;5.308;2023-05-07T13:42:50;8.38;;;4.45;;
41480;SDS011;27217;51.220;5.308;2023-05-07T13:45:17;16.60;;;6.70;;
41480;SDS011;27217;51.220;5.308;2023-05-07T13:47:44;11.75;;;6.32;;
41480;SDS011;27217;51.220;5.308;2023-05-07T13:50:10;13.75;;;9.60;;
41480;SDS011;27217;51.220;5.308;2023-05-07T13:52:39;16.50;;;10.18;;
41480;SDS011;27217;51.220;5.308;2023-05-07T13:55:06;11.93;;;9.65;;
41480;SDS011;27217;51.220;5.308;2023-05-07T13:57:32;13.20;;;7.97;;
41480;SDS011;27217;51.220;5.308;2023-05-07T13:59:59;10.85;;;6.28;;
41480;SDS011;27217;51.220;5.308;2023-05-07T14:02:25;8.68;;;5.03;;
41480;SDS011;27217;51.220;5.308;2023-05-07T14:04:51;8.68;;;5.93;;
41480;SDS011;27217;51.220;5.308;2023-05-07T14:07:17;7.78;;;4.28;;
41480;SDS011;27217;51.220;5.308;2023-05-07T14:09:42;13.85;;;7.90;;
41480;SDS011;27217;51.220;5.308;2023-05-07T14:12:10;10.88;;;7.35;;
41480;SDS011;27217;51.220;5.308;2023-05-07T14:14:35;10.43;;;5.18;;
41480;SDS011;27217;51.220;5.308;2023-05-07T14:17:02;10.77;;;6.57;;
41480;SDS011;27217;51.220;5.308;2023-05-07T14:19:27;10.48;;;6.63;;
41480;SDS011;27217;51.220;5.308;2023-05-07T14:21:53;6.18;;;4.55;;
41480;SDS011;27217;51.220;5.308;2023-05-07T14:24:19;11.15;;;4.97;;
41480;SDS011;27217;51.220;5.308;2023-05-07T14:26:46;7.80;;;4.80;;
41480;SDS011;27217;51.220;5.308;2023-05-07T14:29:12;5.90;;;4.65;;
41480;SDS011;27217;51.220;5.308;2023-05-07T14:31:37;9.15;;;3.78;;
41480;SDS011;27217;51.220;5.308;2023-05-07T14:34:03;7.25;;;4.88;;
41480;SDS011;27217;51.220;5.308;2023-05-07T14:36:29;8.63;;;5.13;;
41480;SDS011;27217;51.220;5.308;2023-05-07T14:38:56;13.80;;;6.22;;
41480;SDS011;27217;51.220;5.308;2023-05-07T14:41:24;14.23;;;7.53;;
41480;SDS011;27217;51.220;5.308;2023-05-07T14:43:50;9.40;;;6.70;;
41480;SDS011;27217;51.220;5.308;2023-05-07T14:46:16;9.90;;;6.10;;
41480;SDS011;27217;51.220;5.308;2023-05-07T14:48:43;11.18;;;6.72;;
41480;SDS011;27217;51.220;5.308;2023-05-07T14:51:12;14.30;;;7.75;;
41480;SDS011;27217;51.220;5.308;2023-05-07T14:53:38;11.13;;;7.70;;